Time;durP1;ratioP1;P1;durP2;ratioP2;P2;SDS_P1;SDS_P2;PMS_P1;PMS_P2;Temp;Humidity;BMP_temperature;BMP_pressure;BME280_temperature;BME280_humidity;BME280_pressure;Samples;Min_cycle;Max_cycle;Signal;HPM_P1;HPM_P2
2021/03/12 00:00:18;;;;;;;14.37;10.90;;;;;;;3.58;49.62;100317.09;5060214;28;20025;-77
2021/03/12 00:02:45;;;;;;;14.83;10.60;;;;;;;3.39;49.67;100294.16;5043438;28;20484;-78
2021/03/12 00:05:12;;;;;;;14.93;10.43;;;;;;;3.56;49.63;100312.94;5060289;28;20041;-78
2021/03/12 00:07:39;;;;;;;15.13;9.97;;;;;;;3.53;49.27;100319.22;5042259;28;20028;-78
2021/03/12 00:10:09;;;;;;;14.03;9.40;;;;;;;3.44;49.15;100314.69;5060989;28;20037;-79
2021/03/12 00:12:34;;;;;;;17.80;11.07;;;;;;;2.99;49.37;100251.06;5061343;28;20024;-79
2021/03/12 00:15:00;;;;;;;16.27;10.70;;;;;;;3.27;49.42;100291.63;5068130;23;20098;-77
2021/03/12 00:17:25;;;;;;;19.23;11.63;;;;;;;3.24;49.44;100277.00;5041708;28;20029;-78
2021/03/12 00:19:51;;;;;;;14.97;10.97;;;;;;;3.17;49.43;100257.53;5059422;28;20078;-78
2021/03/12 00:22:16;;;;;;;16.80;11.10;;;;;;;3.37;49.25;100274.31;5042236;28;20039;-78
2021/03/12 00:24:41;;;;;;;15.20;10.57;;;;;;;3.46;49.62;100279.69;5048554;22;20019;-78
2021/03/12 00:27:07;;;;;;;15.00;11.73;;;;;;;3.44;49.08;100280.75;5042215;28;20469;-78
2021/03/12 00:29:32;;;;;;;12.77;9.30;;;;;;;3.43;49.26;100289.53;5042129;28;20033;-78
2021/03/12 00:31:58;;;;;;;14.07;10.33;;;;;;;3.46;48.85;100297.13;5057099;22;20053;-77
2021/03/12 00:36:48;;;;;;;13.55;10.18;;;;;;;3.37;49.41;100292.59;5035770;22;20763;-78
2021/03/12 00:39:14;;;;;;;15.30;10.57;;;;;;;3.31;49.43;100300.88;5040185;28;20057;-78
2021/03/12 00:41:39;;;;;;;13.93;9.77;;;;;;;3.39;49.24;100301.16;5039540;28;20025;-78
2021/03/12 00:44:05;;;;;;;13.33;9.40;;;;;;;3.24;49.00;100270.97;5039232;23;20046;-79
2021/03/12 00:46:30;;;;;;;16.00;11.23;;;;;;;3.46;48.83;100289.31;5064418;22;20051;-78
2021/03/12 00:48:56;;;;;;;11.97;9.30;;;;;;;3.51;49.05;100274.13;5068668;28;20037;-78
2021/03/12 00:51:21;;;;;;;14.10;9.63;;;;;;;3.21;48.83;100234.66;5043384;28;20106;-77
2021/03/12 00:53:47;;;;;;;15.00;10.43;;;;;;;3.41;48.68;100252.28;5060338;28;20021;-78
2021/03/12 00:56:12;;;;;;;13.37;9.90;;;;;;;3.12;48.81;100208.31;5059455;28;20036;-78
2021/03/12 00:58:37;;;;;;;12.10;9.60;;;;;;;3.51;48.54;100272.34;5066395;22;20021;-77
2021/03/12 01:01:03;;;;;;;14.73;10.30;;;;;;;3.18;48.65;100220.06;5066600;22;20075;-78
2021/03/12 01:03:28;;;;;;;13.07;9.10;;;;;;;3.54;48.86;100271.28;5041282;28;20415;-77
2021/03/12 01:05:54;;;;;;;14.57;10.43;;;;;;;3.49;48.74;100263.81;5066820;22;20041;-78
2021/03/12 01:08:19;;;;;;;11.40;9.13;;;;;;;3.49;48.83;100250.75;5059169;28;20458;-79
2021/03/12 01:10:45;;;;;;;10.50;9.13;;;;;;;3.44;48.62;100223.31;5059894;28;20032;-78
2021/03/12 01:13:10;;;;;;;10.77;8.43;;;;;;;3.54;48.48;100239.97;5059991;28;20029;-78
2021/03/12 01:15:36;;;;;;;14.83;9.73;;;;;;;3.53;48.88;100245.28;5066021;22;20099;-78
2021/03/12 01:18:01;;;;;;;13.60;9.57;;;;;;;3.49;48.94;100248.13;5066921;23;20045;-79
2021/03/12 01:22:55;;;;;;;12.60;9.94;;;;;;;3.51;49.09;100232.34;5069865;22;20053;-78
2021/03/12 01:25:23;;;;;;;14.67;9.80;;;;;;;3.48;48.85;100228.19;5045607;28;20124;-77
2021/03/12 01:27:48;;;;;;;14.37;9.63;;;;;;;3.41;49.07;100221.78;5063065;28;20419;-78
2021/03/12 01:30:19;;;;;;;15.73;10.03;;;;;;;3.36;49.49;100210.03;5045567;28;20036;-78
2021/03/12 01:32:46;;;;;;;14.27;10.95;;;;;;;3.30;49.54;100200.03;5063083;28;20087;-77
2021/03/12 01:35:12;;;;;;;12.67;9.63;;;;;;;3.28;49.58;100179.28;5064519;28;20033;-79
2021/03/12 01:37:38;;;;;;;12.77;10.07;;;;;;;3.01;50.09;100131.78;5062984;28;20111;-79
2021/03/12 01:40:08;;;;;;;13.23;9.67;;;;;;;3.01;49.87;100137.00;5063210;28;20040;-78
2021/03/12 01:42:34;;;;;;;12.17;8.97;;;;;;;2.61;50.37;100076.56;5061839;28;20029;-77
2021/03/12 01:45:00;;;;;;;13.50;9.30;;;;;;;2.26;50.16;100040.91;5063614;28;20024;-78
2021/03/12 01:47:25;;;;;;;13.87;9.73;;;;;;;2.90;49.88;100139.56;5072855;22;20383;-78
2021/03/12 01:49:51;;;;;;;12.67;9.20;;;;;;;3.02;49.81;100168.19;5065005;28;20481;-77
2021/03/12 01:52:17;;;;;;;13.87;9.43;;;;;;;2.79;50.30;100154.22;5065378;28;20032;-77
2021/03/12 01:54:42;;;;;;;13.77;9.63;;;;;;;3.06;50.61;100187.06;5064797;28;20032;-77
2021/03/12 01:57:08;;;;;;;11.47;8.90;;;;;;;2.46;50.80;100094.16;5045891;28;20032;-77
2021/03/12 01:59:34;;;;;;;12.70;8.90;;;;;;;2.99;50.63;100194.50;5061527;28;20416;-77
2021/03/12 02:02:00;;;;;;;14.23;9.60;;;;;;;2.70;50.55;100164.50;5061561;28;20162;-77
2021/03/12 02:04:25;;;;;;;14.67;10.00;;;;;;;2.86;50.54;100185.91;5060560;28;20036;-77
2021/03/12 02:06:52;;;;;;;20.20;11.10;;;;;;;2.93;50.70;100202.75;5043143;28;20028;-77
2021/03/12 02:09:18;;;;;;;14.23;10.30;;;;;;;2.85;50.61;100200.72;5044183;28;20041;-78
2021/03/12 02:12:06;;;;;;;13.93;9.60;;;;;;;2.92;50.74;100216.75;5045689;28;20043;-78
2021/03/12 02:15:08;;;;;;;13.47;10.03;;;;;;;2.87;50.12;100198.00;5062090;28;20025;-77
2021/03/12 02:17:56;;;;;;;15.00;10.63;;;;;;;2.94;50.50;100217.47;5047727;28;20029;-78
2021/03/12 02:20:59;;;;;;;14.13;10.60;;;;;;;2.94;50.55;100214.03;5070048;22;20455;-77
2021/03/12 02:23:45;;;;;;;;;;;;;;;2.79;51.28;100202.94;5061506;28;20032;-77
2021/03/12 02:26:24;;;;;;;13.23;9.30;;;;;;;2.86;50.88;100199.78;5041880;28;19912;-77
2021/03/12 02:28:52;;;;;;;14.03;9.73;;;;;;;2.88;51.23;100184.84;5053699;23;20076;-77
2021/03/12 02:31:18;;;;;;;14.90;9.63;;;;;;;2.57;50.80;100103.78;5033018;23;20037;-77
2021/03/12 02:33:44;;;;;;;13.73;8.47;;;;;;;2.77;50.63;100130.06;5040024;28;20052;-77
2021/03/12 02:36:10;;;;;;;13.30;9.90;;;;;;;2.85;50.69;100145.13;5046315;23;20053;-78
2021/03/12 02:38:37;;;;;;;11.67;8.87;;;;;;;2.80;50.55;100144.63;5049603;23;20070;-77
2021/03/12 02:41:05;;;;;;;14.43;9.50;;;;;;;2.87;50.67;100169.31;5059513;28;20033;-77
2021/03/12 02:43:32;;;;;;;12.33;8.90;;;;;;;2.12;50.77;100043.66;5059273;28;20020;-78
2021/03/12 02:45:58;;;;;;;13.33;9.43;;;;;;;2.31;50.66;100077.88;5060110;28;20032;-78
2021/03/12 02:48:24;;;;;;;10.10;8.47;;;;;;;2.78;50.83;100156.97;5060290;28;20025;-77
2021/03/12 02:50:51;;;;;;;11.67;8.93;;;;;;;2.74;50.36;100165.94;5067745;22;20480;-77
2021/03/12 02:53:17;;;;;;;12.60;8.93;;;;;;;2.68;51.07;100175.06;5059532;28;20410;-77
2021/03/12 02:55:43;;;;;;;14.30;9.93;;;;;;;2.39;50.71;100148.50;5059849;28;20442;-77
2021/03/12 02:58:10;;;;;;;14.40;10.13;;;;;;;2.54;51.03;100159.59;5059746;28;20017;-77
2021/03/12 03:00:36;;;;;;;13.00;9.77;;;;;;;2.70;50.78;100185.38;5060286;28;20029;-78
2021/03/12 03:03:03;;;;;;;14.73;10.63;;;;;;;2.02;51.05;100071.31;5059703;28;20032;-77
2021/03/12 03:05:29;;;;;;;12.93;9.83;;;;;;;2.61;50.73;100157.38;5059154;28;20074;-78
2021/03/12 03:07:56;;;;;;;14.70;10.03;;;;;;;2.75;50.66;100185.88;5060099;28;20025;-77
2021/03/12 03:10:23;;;;;;;12.67;9.53;;;;;;;2.69;50.47;100152.41;5049298;23;20447;-77
2021/03/12 03:12:51;;;;;;;15.20;9.90;;;;;;;1.87;50.64;100034.19;5063654;28;20033;-78
2021/03/12 03:15:19;;;;;;;12.70;9.30;;;;;;;2.80;50.61;100176.75;5042977;28;20092;-77
2021/03/12 03:17:46;;;;;;;14.57;10.50;;;;;;;2.61;50.59;100155.59;5061012;28;20347;-78
2021/03/12 03:20:14;;;;;;;12.80;9.23;;;;;;;2.76;51.13;100164.06;5049146;23;20041;-77
2021/03/12 03:22:40;;;;;;;12.47;9.93;;;;;;;2.71;50.90;100163.56;5050595;22;20036;-77
2021/03/12 03:25:08;;;;;;;13.20;9.23;;;;;;;2.81;51.00;100172.38;5042905;28;20032;-77
2021/03/12 03:27:34;;;;;;;18.23;11.53;;;;;;;2.48;50.94;100144.41;5044581;28;20074;-77
2021/03/12 03:29:59;;;;;;;15.83;11.97;;;;;;;2.63;51.13;100176.34;5061428;28;20060;-78
2021/03/12 03:32:25;;;;;;;15.67;11.70;;;;;;;2.24;51.05;100123.56;5043330;28;20029;-78
2021/03/12 03:34:50;;;;;;;19.67;11.57;;;;;;;2.60;51.10;100186.97;5067917;22;20008;-78
2021/03/12 03:37:16;;;;;;;15.57;11.23;;;;;;;2.57;51.61;100189.81;5068841;22;20553;-78
2021/03/12 03:39:41;;;;;;;15.80;11.30;;;;;;;2.63;51.41;100191.97;5062018;28;20108;-79
2021/03/12 03:42:09;;;;;;;16.40;11.47;;;;;;;2.66;51.26;100194.34;5050999;23;20064;-78
2021/03/12 03:44:36;;;;;;;14.23;10.20;;;;;;;2.68;51.24;100200.28;5068294;22;20053;-77
2021/03/12 03:47:03;;;;;;;16.30;10.63;;;;;;;2.28;51.07;100137.19;5044392;22;697433;-77
2021/03/12 03:49:33;;;;;;;15.30;9.50;;;;;;;2.62;51.00;100190.31;5061075;22;20050;-78
2021/03/12 03:52:01;;;;;;;15.33;10.70;;;;;;;2.70;51.50;100201.00;5043080;28;20029;-78
2021/03/12 03:56:52;;;;;;;16.00;10.80;;;;;;;2.61;51.49;100207.72;5048664;22;20475;-78
2021/03/12 03:59:19;;;;;;;14.60;9.57;;;;;;;2.64;51.51;100214.50;5041726;28;20037;-77
2021/03/12 04:01:46;;;;;;;16.33;10.33;;;;;;;2.67;51.10;100211.66;5023634;28;20075;-78
2021/03/12 04:04:13;;;;;;;17.17;9.93;;;;;;;2.64;51.42;100210.13;5041810;28;20339;-78
2021/03/12 04:06:41;;;;;;;19.03;11.40;;;;;;;2.07;51.39;100109.13;5025535;28;20034;-78
2021/03/12 04:09:07;;;;;;;20.33;15.20;;;;;;;2.48;51.43;100167.84;5024050;28;20104;-78
2021/03/12 04:11:34;;;;;;;24.50;17.60;;;;;;;2.74;51.33;100171.16;5042201;28;20061;-78
2021/03/12 04:14:01;;;;;;;25.23;16.70;;;;;;;2.51;51.52;100154.59;5053147;23;20048;-78
2021/03/12 04:16:28;;;;;;;20.90;13.33;;;;;;;2.70;51.31;100187.97;5066633;28;20045;-77
2021/03/12 04:18:53;;;;;;;20.60;13.90;;;;;;;2.68;51.68;100195.06;5046230;28;20035;-78
2021/03/12 04:21:19;;;;;;;17.27;12.57;;;;;;;2.71;51.44;100192.25;5060792;28;20032;-78
2021/03/12 04:23:45;;;;;;;23.83;14.67;;;;;;;2.71;51.29;100180.03;5062188;28;20073;-78
2021/03/12 04:26:12;;;;;;;20.13;12.33;;;;;;;2.74;51.34;100189.41;5064035;23;20061;-79
2021/03/12 04:28:38;;;;;;;15.37;10.97;;;;;;;2.64;51.46;100152.75;5042515;28;20079;-78
2021/03/12 04:31:04;;;;;;;18.07;11.30;;;;;;;2.68;51.65;100141.16;5023859;28;20025;-78
2021/03/12 04:33:29;;;;;;;16.73;11.27;;;;;;;2.68;51.30;100151.59;5041936;23;20459;-78
2021/03/12 04:35:55;;;;;;;21.47;11.60;;;;;;;2.71;51.41;100153.13;5051029;22;20100;-79
2021/03/12 04:38:22;;;;;;;15.27;10.60;;;;;;;2.71;51.81;100160.97;5061229;28;20037;-78
2021/03/12 04:40:48;;;;;;;16.80;11.90;;;;;;;2.48;51.52;100126.16;5049637;23;20071;-78
2021/03/12 04:43:14;;;;;;;19.37;12.03;;;;;;;2.67;51.50;100157.75;5067019;22;20049;-78
2021/03/12 04:45:40;;;;;;;21.23;11.83;;;;;;;2.70;51.61;100175.78;5042514;28;20094;-78
2021/03/12 04:48:06;;;;;;;17.53;11.77;;;;;;;2.71;51.91;100161.78;5042352;28;20048;-78
2021/03/12 04:50:32;;;;;;;19.07;13.57;;;;;;;2.69;51.76;100155.03;5059433;28;20490;-78
2021/03/12 04:52:58;;;;;;;18.30;12.93;;;;;;;2.69;51.85;100147.19;5041780;28;20082;-78
2021/03/12 04:55:25;;;;;;;18.87;12.30;;;;;;;2.74;52.09;100147.69;5068859;22;20044;-78
2021/03/12 04:57:51;;;;;;;19.33;13.20;;;;;;;2.60;52.07;100127.84;5041909;23;20091;-78
2021/03/12 05:00:19;;;;;;;17.87;11.93;;;;;;;2.79;51.94;100158.63;5026007;28;20398;-78
2021/03/12 05:02:45;;;;;;;20.43;12.67;;;;;;;2.80;51.91;100155.91;5042352;28;20087;-79
2021/03/12 05:05:11;;;;;;;19.47;12.17;;;;;;;2.27;51.74;100066.03;5026097;28;20032;-77
2021/03/12 05:07:40;;;;;;;18.40;12.10;;;;;;;2.87;51.92;100119.75;5043679;28;20446;-77
2021/03/12 05:10:07;;;;;;;16.10;11.00;;;;;;;3.12;52.10;100082.25;5021805;28;20379;-77
2021/03/12 05:12:33;;;;;;;13.27;10.27;;;;;;;3.54;51.74;100122.47;5048423;23;20078;-77
2021/03/12 05:14:59;;;;;;;13.43;10.13;;;;;;;3.62;50.71;100119.25;5060061;28;20386;-78
2021/03/12 05:17:25;;;;;;;15.43;11.77;;;;;;;3.81;50.29;100122.13;5061661;28;20028;-77
2021/03/12 05:19:50;;;;;;;16.47;10.63;;;;;;;3.56;50.37;100080.59;5063669;28;20131;-76
2021/03/12 05:22:16;;;;;;;14.63;11.13;;;;;;;3.39;50.03;100055.78;5068106;28;20029;-78
2021/03/12 05:24:42;;;;;;;14.10;10.53;;;;;;;3.33;49.96;100017.13;5061090;28;20028;-78
2021/03/12 05:27:08;;;;;;;16.53;11.10;;;;;;;4.09;50.10;100113.75;5045242;28;20032;-77
2021/03/12 05:29:34;;;;;;;18.77;12.47;;;;;;;3.92;50.19;100084.72;5064134;28;20036;-78
2021/03/12 05:32:00;;;;;;;21.07;12.57;;;;;;;3.93;50.12;100094.19;5063858;28;20077;-78
2021/03/12 05:34:26;;;;;;;18.33;12.53;;;;;;;3.54;50.16;100061.59;5060666;28;20035;-76
2021/03/12 05:36:51;;;;;;;20.77;14.20;;;;;;;3.64;50.47;100080.81;5057530;28;20350;-76
2021/03/12 05:39:19;;;;;;;20.30;13.40;;;;;;;3.74;50.39;100115.72;5057366;28;20033;-76
2021/03/12 05:41:46;;;;;;;23.77;15.73;;;;;;;3.27;50.57;100028.03;5057193;28;20104;-75
2021/03/12 05:44:11;;;;;;;21.17;13.37;;;;;;;3.63;50.96;100082.59;5039880;28;20440;-76
2021/03/12 05:46:36;;;;;;;22.07;14.87;;;;;;;3.45;50.69;100073.59;5057302;28;20040;-77
2021/03/12 05:49:03;;;;;;;22.67;13.53;;;;;;;3.62;51.20;100112.25;5056988;28;20025;-76
2021/03/12 05:51:29;;;;;;;24.57;13.93;;;;;;;3.47;51.03;100092.56;5040053;28;20115;-78
2021/03/12 05:53:55;;;;;;;21.10;12.47;;;;;;;3.63;51.45;100126.97;5046107;28;20143;-77
2021/03/12 05:56:20;;;;;;;17.90;14.33;;;;;;;3.61;51.46;100136.72;5061615;28;20099;-78
2021/03/12 05:58:46;;;;;;;23.90;16.43;;;;;;;3.58;51.48;100136.13;5061207;28;20025;-77
2021/03/12 06:01:13;;;;;;;20.63;14.07;;;;;;;3.58;51.23;100138.72;5062391;28;20029;-76
2021/03/12 06:03:41;;;;;;;20.03;14.03;;;;;;;3.60;50.89;100129.81;5059759;28;20036;-77
2021/03/12 06:06:06;;;;;;;22.27;14.27;;;;;;;3.61;51.15;100128.88;5040436;28;20112;-76
2021/03/12 06:08:32;;;;;;;24.67;14.23;;;;;;;2.92;51.17;100021.13;5060802;28;20396;-77
2021/03/12 06:10:58;;;;;;;22.43;15.27;;;;;;;3.16;51.18;100058.41;5060638;28;20462;-77
2021/03/12 06:13:23;;;;;;;22.00;15.13;;;;;;;2.68;50.96;99960.44;5041485;28;20112;-78
2021/03/12 06:15:48;;;;;;;22.10;14.60;;;;;;;3.67;50.97;100120.56;5059645;28;20056;-77
2021/03/12 06:18:25;;;;;;;20.60;14.37;;;;;;;3.03;50.55;100004.69;5060540;28;20032;-78
2021/03/12 06:20:54;;;;;;;22.23;14.77;;;;;;;3.63;50.75;100094.81;5042653;28;20035;-77
2021/03/12 06:23:51;;;;;;;24.67;15.50;;;;;;;3.72;50.36;100101.97;5060630;28;20346;-78
2021/03/12 06:26:17;;;;;;;23.67;15.83;;;;;;;3.77;49.93;100099.81;5018246;28;20041;-77
2021/03/12 06:28:42;;;;;;;17.87;13.47;;;;;;;3.70;50.36;100091.59;5043628;28;20040;-77
2021/03/12 06:31:30;;;;;;;18.73;13.80;;;;;;;3.76;49.81;100126.88;5059824;28;20040;-77
2021/03/12 06:34:07;;;;;;;26.27;17.00;;;;;;;3.53;49.86;100070.38;5044822;28;20025;-77
2021/03/12 06:36:33;;;;;;;23.50;17.50;;;;;;;3.91;50.27;100106.56;5068900;23;20101;-77
2021/03/12 06:38:58;;;;;;;27.53;18.03;;;;;;;3.98;49.99;100108.56;5042470;28;20096;-77
2021/03/12 06:41:43;;;;;;;32.53;20.67;;;;;;;4.01;50.50;100115.31;5041372;28;20494;-76
2021/03/12 06:44:32;;;;;;;32.60;21.93;;;;;;;3.60;50.40;100059.34;5052802;28;20041;-76
2021/03/12 06:46:59;;;;;;;32.70;23.13;;;;;;;4.22;50.42;100151.97;5049920;28;20029;-77
2021/03/12 06:51:55;;;;;;;30.62;21.38;;;;;;;4.40;49.95;100158.34;5040404;23;20117;-78
2021/03/12 06:54:20;;;;;;;49.97;35.00;;;;;;;4.41;49.95;100166.06;5040981;28;20029;-78
2021/03/12 06:56:46;;;;;;;50.70;33.47;;;;;;;3.96;49.72;100093.97;5014145;28;20040;-77
2021/03/12 06:59:12;;;;;;;49.23;34.57;;;;;;;4.38;50.06;100166.31;5018412;28;20032;-77
2021/03/12 07:01:37;;;;;;;42.50;28.67;;;;;;;4.25;50.04;100144.72;5031108;28;20117;-77
2021/03/12 07:04:09;;;;;;;37.63;26.50;;;;;;;4.49;49.34;100180.34;5060352;23;20426;-76
2021/03/12 07:06:50;;;;;;;35.83;25.13;;;;;;;4.54;49.18;100152.84;5059089;28;20029;-76
2021/03/12 07:09:17;;;;;;;39.83;27.80;;;;;;;4.26;49.35;100101.13;5034730;28;20111;-77
2021/03/12 07:11:43;;;;;;;38.90;27.50;;;;;;;4.09;48.90;100087.63;5066502;28;20028;-77
2021/03/12 07:14:08;;;;;;;36.40;25.90;;;;;;;4.60;48.99;100154.13;5076643;28;20349;-77
2021/03/12 07:16:34;;;;;;;36.43;25.83;;;;;;;4.23;48.79;100091.75;5059143;28;20017;-77
2021/03/12 07:18:59;;;;;;;35.60;25.07;;;;;;;3.83;48.68;100024.41;5076476;28;20392;-77
2021/03/12 07:21:28;;;;;;;34.23;21.73;;;;;;;4.66;49.04;100167.56;5077768;28;20032;-77
2021/03/12 07:24:01;;;;;;;31.37;21.53;;;;;;;4.68;48.73;100170.03;5077802;28;20086;-77
2021/03/12 07:26:48;;;;;;;36.27;22.60;;;;;;;4.53;48.55;100135.50;5077520;28;20024;-77
2021/03/12 07:29:16;;;;;;;34.37;22.67;;;;;;;3.74;48.51;100001.66;5080925;28;20091;-77
2021/03/12 07:31:42;;;;;;;36.27;23.17;;;;;;;4.41;49.14;100126.00;5083739;28;20031;-77
2021/03/12 07:34:19;;;;;;;32.67;22.07;;;;;;;4.76;48.60;100183.31;5073113;28;20064;-78
2021/03/12 07:36:49;;;;;;;31.77;19.17;;;;;;;4.69;48.40;100149.00;5053266;28;20439;-78
2021/03/12 07:39:35;;;;;;;29.20;19.00;;;;;;;4.98;48.32;100198.91;5063963;28;20040;-78
2021/03/12 07:42:02;;;;;;;26.73;18.27;;;;;;;4.57;48.69;100133.47;5037274;23;20037;-78
2021/03/12 07:46:54;;;;;;;27.76;18.20;;;;;;;4.52;48.71;100127.78;5063302;22;20057;-77
2021/03/12 07:49:28;;;;;;;28.73;18.50;;;;;;;4.79;48.93;100183.06;5032938;28;20036;-78
2021/03/12 07:51:55;;;;;;;27.67;18.53;;;;;;;4.78;49.51;100202.34;5032646;28;20082;-78
2021/03/12 07:54:40;;;;;;;26.27;18.53;;;;;;;4.86;49.44;100226.09;5057791;28;20128;-77
2021/03/12 07:57:10;;;;;;;28.00;18.57;;;;;;;4.31;49.24;100125.94;5039794;28;20116;-78
2021/03/12 07:59:48;;;;;;;24.10;15.93;;;;;;;4.91;49.30;100212.63;5055251;28;20028;-78
2021/03/12 08:02:14;;;;;;;23.23;15.20;;;;;;;4.06;49.23;100082.66;5038871;28;20025;-78
2021/03/12 08:04:40;;;;;;;23.40;16.17;;;;;;;4.66;49.45;100185.03;5055031;23;20045;-77
2021/03/12 08:07:21;;;;;;;23.43;15.63;;;;;;;5.02;49.59;100236.13;5038542;28;20092;-78
2021/03/12 08:09:47;;;;;;;23.23;15.47;;;;;;;5.13;49.23;100236.09;5019125;28;20040;-78
2021/03/12 08:12:34;;;;;;;21.70;15.00;;;;;;;4.86;49.56;100196.47;5036705;28;20029;-78
2021/03/12 08:15:20;;;;;;;23.40;15.27;;;;;;;5.07;49.23;100208.63;5035075;28;20033;-78
2021/03/12 08:18:09;;;;;;;18.90;13.43;;;;;;;5.14;48.48;100201.09;5039315;28;20025;-78
2021/03/12 08:20:39;;;;;;;19.37;16.07;;;;;;;4.86;49.07;100144.97;5038672;28;20041;-78
2021/03/12 08:23:06;;;;;;;20.47;14.33;;;;;;;4.84;49.33;100154.75;5021532;28;20057;-77
2021/03/12 08:25:31;;;;;;;26.53;15.53;;;;;;;5.36;48.88;100214.09;5047284;28;20033;-78
2021/03/12 08:27:58;;;;;;;24.77;17.07;;;;;;;5.38;48.72;100201.69;5039988;28;20044;-78
2021/03/12 08:30:23;;;;;;;24.70;17.10;;;;;;;5.42;48.97;100203.09;5023817;28;20124;-78
2021/03/12 08:32:50;;;;;;;22.93;16.00;;;;;;;5.49;49.00;100194.72;5045201;28;20236;-78
2021/03/12 08:35:34;;;;;;;23.00;16.60;;;;;;;5.77;48.81;100204.53;5058691;28;20024;-77
2021/03/12 08:38:03;;;;;;;29.53;17.80;;;;;;;5.39;48.81;100187.66;5041461;28;20060;-78
2021/03/12 08:40:31;;;;;;;26.83;18.77;;;;;;;4.86;48.61;100091.84;5040863;28;20037;-77
2021/03/12 08:43:15;;;;;;;28.03;18.97;;;;;;;5.62;49.20;100201.41;5059963;28;20036;-78
2021/03/12 08:45:45;;;;;;;27.17;19.40;;;;;;;5.55;49.11;100208.13;5061630;28;20017;-77
2021/03/12 08:48:13;;;;;;;28.63;18.07;;;;;;;5.71;48.71;100197.19;5059551;28;20032;-76
2021/03/12 08:50:49;;;;;;;29.00;18.33;;;;;;;5.67;48.72;100172.22;5036674;28;20032;-78
2021/03/12 08:53:15;;;;;;;26.83;18.87;;;;;;;6.07;47.96;100208.16;5046846;28;20056;-78
2021/03/12 08:55:46;;;;;;;22.83;16.73;;;;;;;5.71;48.35;100097.63;5053047;28;20025;-78
2021/03/12 08:58:17;;;;;;;34.50;21.23;;;;;;;6.25;47.93;100154.94;5037675;28;20332;-77
2021/03/12 09:00:44;;;;;;;25.37;17.43;;;;;;;5.80;48.27;100109.09;5019909;28;20051;-78
2021/03/12 09:03:16;;;;;;;23.87;17.43;;;;;;;6.37;48.58;100181.88;5041579;28;20101;-78
2021/03/12 09:05:42;;;;;;;23.98;16.88;;;;;;;5.99;48.34;100112.66;5018956;28;20440;-78
2021/03/12 09:08:07;;;;;;;24.30;16.73;;;;;;;6.34;47.86;100164.59;5038173;28;20092;-77
2021/03/12 09:10:33;;;;;;;22.80;16.37;;;;;;;6.35;48.49;100189.88;5040605;28;20024;-77
2021/03/12 09:12:59;;;;;;;23.77;16.73;;;;;;;6.28;48.08;100165.16;5026104;28;20355;-78
2021/03/12 09:15:26;;;;;;;23.17;16.70;;;;;;;6.40;48.13;100154.53;5020759;28;20032;-78
2021/03/12 09:17:58;;;;;;;22.83;15.13;;;;;;;6.36;47.58;100154.81;5046070;28;20059;-77
2021/03/12 09:20:24;;;;;;;;;;;;;;;6.37;48.15;100155.63;5042779;28;20061;-78
2021/03/12 09:22:55;;;;;;;23.77;15.43;;;;;;;6.47;48.18;100150.41;5032860;28;20637;-77
2021/03/12 09:25:31;;;;;;;21.00;16.00;;;;;;;6.70;47.87;100159.69;5044493;28;20063;-77
2021/03/12 09:28:06;;;;;;;24.73;16.53;;;;;;;6.77;47.71;100137.19;5005660;28;20036;-76
2021/03/12 09:30:38;;;;;;;23.80;17.53;;;;;;;7.03;47.11;100153.19;5035959;28;20095;-79
2021/03/12 09:33:04;;;;;;;;;;;;;;;6.96;47.65;100162.56;5016658;28;20033;-76
2021/03/12 09:35:29;;;;;;;17.40;14.23;;;;;;;7.05;47.66;100153.88;5049344;28;19913;-77
2021/03/12 09:37:57;;;;;;;22.20;15.87;;;;;;;7.08;47.29;100145.69;5042661;28;20420;-77
2021/03/12 09:40:40;;;;;;;26.77;17.53;;;;;;;6.97;47.33;100140.63;5041628;28;20026;-75
2021/03/12 09:43:09;;;;;;;24.07;16.77;;;;;;;6.61;47.29;100084.41;5025644;28;20579;-75
2021/03/12 09:45:36;;;;;;;22.50;16.87;;;;;;;6.80;47.62;100126.41;5038676;28;20029;-79
2021/03/12 09:48:04;;;;;;;26.07;18.07;;;;;;;6.97;47.81;100144.06;5025528;28;20124;-80
2021/03/12 09:50:35;;;;;;;21.53;16.07;;;;;;;6.63;47.83;100059.69;5047986;28;20029;-75
2021/03/12 09:53:05;;;;;;;26.33;17.60;;;;;;;7.15;47.24;100115.28;5040767;28;20115;-76
2021/03/12 09:55:33;;;;;;;25.77;16.43;;;;;;;6.83;47.77;100086.75;5035794;28;20120;-78
2021/03/12 09:57:59;;;;;;;24.37;17.13;;;;;;;6.91;47.37;100078.16;5042491;28;20026;-77
2021/03/12 10:00:26;;;;;;;27.13;17.87;;;;;;;7.34;47.79;100111.78;5033386;28;20057;-78
2021/03/12 10:02:57;;;;;;;21.53;16.90;;;;;;;7.02;47.88;100085.88;5026101;28;20044;-77
2021/03/12 10:05:24;;;;;;;19.92;15.93;;;;;;;6.68;47.69;100014.66;5033963;28;20402;-77
2021/03/12 10:07:50;;;;;;;25.33;18.10;;;;;;;7.29;48.12;100078.06;5022961;28;20038;-77
2021/03/12 10:10:31;;;;;;;25.50;16.83;;;;;;;7.64;47.54;100082.63;5044956;28;20035;-78
2021/03/12 10:12:59;;;;;;;25.50;16.80;;;;;;;7.82;47.51;100072.16;5021932;28;20025;-75
2021/03/12 10:15:30;;;;;;;27.27;18.37;;;;;;;7.90;46.92;100069.63;5038842;28;20025;-75
2021/03/12 10:17:56;;;;;;;22.88;15.75;;;;;;;7.89;47.37;100043.47;5033884;28;20053;-76
2021/03/12 10:20:27;;;;;;;27.10;18.00;;;;;;;8.14;46.54;100028.78;5031154;28;20403;-75
2021/03/12 10:23:04;;;;;;;25.25;17.77;;;;;;;8.21;46.07;99998.28;5021651;28;20396;-75
2021/03/12 10:25:32;;;;;;;25.30;17.02;;;;;;;8.56;46.03;100034.28;5034472;28;20068;-76
2021/03/12 10:28:08;;;;;;;19.73;14.90;;;;;;;8.38;45.68;99968.53;5024228;28;20025;-74
2021/03/12 10:30:38;;;;;;;25.38;17.42;;;;;;;8.81;45.64;100054.53;5021060;28;20025;-75
2021/03/12 10:33:06;;;;;;;19.13;15.23;;;;;;;8.68;45.72;100048.84;5046784;23;20049;-78
2021/03/12 10:35:39;;;;;;;23.02;17.60;;;;;;;8.72;45.47;100052.00;5042155;28;20057;-76
2021/03/12 10:38:05;;;;;;;20.67;15.27;;;;;;;8.75;45.57;100038.53;5018191;28;20036;-76
2021/03/12 10:42:57;;;;;;;24.18;17.96;;;;;;;8.94;45.75;100048.88;5059772;22;20049;-76
2021/03/12 10:45:29;;;;;;;22.80;15.68;;;;;;;9.05;45.64;100047.78;5038249;28;20044;-77
2021/03/12 10:48:04;;;;;;;;;;;;;;;8.96;45.42;100040.84;5046601;28;20048;-76
2021/03/12 10:53:06;;;;;;;21.32;15.48;;;;;;;7.92;45.34;99859.97;5040411;22;20049;-80
2021/03/12 10:55:37;;;;;;;19.95;14.73;;;;;;;7.38;45.42;99749.81;5034690;28;20044;-75
2021/03/12 10:58:03;;;;;;;18.85;14.40;;;;;;;8.49;45.19;99906.91;5017781;28;20033;-77
2021/03/12 11:00:30;;;;;;;20.25;14.50;;;;;;;9.29;45.04;100026.03;5034529;28;20113;-76
2021/03/12 11:02:57;;;;;;;21.52;15.88;;;;;;;9.35;45.07;100020.13;5020923;28;20351;-74
2021/03/12 11:05:23;;;;;;;19.27;13.90;;;;;;;9.19;44.93;99981.34;5019076;28;20087;-77
2021/03/12 11:07:51;;;;;;;22.27;14.93;;;;;;;9.03;45.00;99918.06;5035499;28;20068;-76
2021/03/12 11:10:17;;;;;;;19.88;13.90;;;;;;;9.74;44.28;99997.53;5032658;28;20080;-78
2021/03/12 11:12:46;;;;;;;19.30;15.68;;;;;;;9.99;43.91;99987.03;5035932;28;20048;-77
2021/03/12 11:15:14;;;;;;;22.25;15.32;;;;;;;9.75;44.03;99945.63;5037573;28;20019;-76
2021/03/12 11:17:44;;;;;;;18.48;14.23;;;;;;;9.99;43.78;99964.09;5035641;28;20037;-77
2021/03/12 11:20:11;;;;;;;20.23;14.23;;;;;;;9.97;43.23;99934.44;5035258;28;20021;-75
2021/03/12 11:22:36;;;;;;;18.95;14.57;;;;;;;9.78;43.58;99916.28;5023365;28;20024;-75
2021/03/12 11:25:04;;;;;;;21.83;15.18;;;;;;;10.24;43.38;99988.72;5032670;28;20029;-75
2021/03/12 11:27:31;;;;;;;19.17;14.32;;;;;;;9.70;43.51;99901.28;5035033;28;20028;-76
2021/03/12 11:30:05;;;;;;;19.38;14.40;;;;;;;10.25;43.24;99984.25;5030703;28;20452;-75
2021/03/12 11:32:32;;;;;;;17.23;12.52;;;;;;;9.97;43.11;99954.72;5035058;28;20485;-74
2021/03/12 11:34:57;;;;;;;18.98;13.90;;;;;;;9.68;43.40;99903.25;5013879;28;20340;-74
2021/03/12 11:37:23;;;;;;;15.40;12.02;;;;;;;10.09;43.44;99961.31;5031801;28;20032;-78
2021/03/12 11:39:48;;;;;;;20.42;13.07;;;;;;;9.77;43.27;99885.63;5033810;28;20423;-76
2021/03/12 11:42:14;;;;;;;15.35;11.73;;;;;;;10.37;43.23;99938.91;5014612;28;20029;-77